Terminal Aerodrome Forecast
Issued by NWS Austin/San Antonio, TX

Current Version | Previous Version | Text Only | Print | Product List | Glossary Off
Versions: 1 2 3 4 5 6 7 8 9 10 11 12 13 14 15 16 17 18 19 20 21 22 23 24

000
FTUS44 KEWX 252350
TAFDRT
TAF
KDRT 252350Z 2600/2624 12008KT P6SM SKC
     FM260300 VRB06KT P6SM SKC
     FM260900 11007KT P6SM OVC025
     FM261200 11007KT P6SM OVC015
     FM261800 14014KT P6SM BKN100=

USA.gov is the U.S. government's official web portal to all federal, state and local government web resources and services.